METAR Data
IDs: Format: Raw Decoded Include TAF

Data at: 1748 UTC 21 Sep 2018

KLFK 211653Z AUTO 17005KT 10SM SCT021 29/25 A3000 RMK AO2 LTG DSNT SE SLP154 T02940250
KLFK 211553Z AUTO 16009KT 9SM FEW017 29/25 A3000 RMK AO2 SLP156 T02890250
KLFK 211453Z AUTO 13007KT 9SM CLR 27/25 A3001 RMK AO2 RAB20E37 SLP157 P0000 60000 T02670250 51008
KLFK 211353Z AUTO 11004KT 9SM FEW120 26/25 A3000 RMK AO2 SLP156 T02560250
KLFK 211253Z AUTO 11004KT 8SM BKN120 25/24 A2999 RMK AO2 RAB18E27 SLP152 P0000 T02500244
KLFK 211153Z AUTO 13004KT 10SM BKN120 24/24 A2998 RMK AO2 SLP147 60001 70035 T02440239 10244 20244 52007
KLFK 211053Z AUTO 12004KT 10SM OVC120 24/24 A2997 RMK AO2 SLP145 T02440239
KLFK 210953Z AUTO 10003KT 10SM FEW120 24/24 A2997 RMK AO2 SLP143 T02440239
KLFK 210853Z AUTO 11004KT 10SM CLR 24/24 A2996 RMK AO2 RAB0758E12 SLP140 P0001 60001 T02440239 56005
KLFK 210753Z AUTO 15003KT 10SM FEW110 24/24 A2997 RMK AO2 SLP142 T02440239
KLFK 210653Z AUTO 12003KT 10SM CLR 24/24 A2997 RMK AO2 RAB27E48 SLP143 P0000 T02440239
KLFK 210553Z AUTO 16005KT 10SM CLR 24/24 A2998 RMK AO2 SLP145 60034 T02440239 10289 20233 403220217 58002
KLFK 210453Z AUTO 14004KT 10SM CLR 24/24 A2998 RMK AO2 SLP148 T02440239
KLFK 210353Z AUTO 11004KT 10SM CLR 23/23 A2998 RMK AO2 SLP149 T02330233
KLFK 210253Z AUTO 00000KT 10SM CLR 24/23 A2998 RMK AO2 SLP148 60034 T02390233 51024
KLFK 210153Z AUTO 00000KT 10SM SCT039 24/24 A2996 RMK AO2 RAE10 TSE09 SLP142 P0009 T02390239
KLFK 210130Z AUTO 01003KT 10SM BKN036 BKN043 24/24 A2996 RMK AO2 LTG DSNT NW RAE10 TSE09 P0009 T02390239
KLFK 210115Z AUTO 01003KT 10SM VCTS BKN039 OVC050 24/24 A2995 RMK AO2 LTG DSNT N AND NW RAE10 TSE09 P0009 T02390239
KLFK 210053Z AUTO 24010G20KT 4SM +TSRA BR BKN043 BKN060 OVC070 23/23 A2994 RMK AO2 LTG DSNT NW RAE04B17 TSB10 SLP135 P0025 T02330228
KLFK 210016Z AUTO 14007KT 10SM TS FEW043 28/24 A2992 RMK AO2 LTG DSNT S AND SW RAE04 TSB10 P0000 T02830239
KLFK 202353Z AUTO 11007KT 10SM VCTS -RA FEW039 FEW050 29/24 A2991 RMK AO2 LTG DSNT S RAB52 SLP124 P0000 60000 T02890244 10322 20289 56008
KLFK 202253Z AUTO 12005KT 9SM CLR 30/23 A2992 RMK AO2 SLP127 T03000233
KLFK 202153Z AUTO 12005KT 9SM BKN041 31/23 A2992 RMK AO2 SLP127 T03110228
KLFK 202053Z AUTO 14005KT 10SM CLR 32/22 A2993 RMK AO2 SLP130 T03170222 56023
KLFK 201953Z AUTO 15004KT 10SM CLR 31/22 A2995 RMK AO2 SLP138 T03060222
KLFK 201853Z AUTO 17007KT 10SM FEW043 32/22 A2997 RMK AO2 SLP144 T03170222
KLFK 201753Z AUTO 17004KT 10SM SCT042 31/22 A3000 RMK AO2 SLP153 T03060222 10311 20217 58004
KLFK 201653Z AUTO VRB06KT 10SM CLR 30/23 A3002 RMK AO2 SLP159 T03000233
KLFK 201613Z AUTO 16006KT 10SM SCT018 29/24 A3002 RMK AO2 T02890239
KLFK 201553Z AUTO 20004KT 9SM SCT016 BKN024 28/24 A3002 RMK AO2 SLP162 T02830239
KLFK 201453Z AUTO 00000KT 9SM CLR 27/24 A3001 RMK AO2 SLP159 T02720244 53014
KLFK 201353Z AUTO 00000KT 9SM CLR 24/23 A3000 RMK AO2 SLP155 T02440233
KLFK 201253Z AUTO 10003KT 10SM CLR 22/22 A2998 RMK AO2 SLP148 T02220217
KLFK 201153Z AUTO 00000KT 10SM CLR 22/21 A2997 RMK AO2 SLP144 T02170211 10233 20217 53007
KLFK 201053Z AUTO 00000KT 10SM CLR 22/22 A2995 RMK AO2 SLP138 T02220217
KLFK 200953Z AUTO 12003KT 10SM CLR 22/22 A2995 RMK AO2 SLP138 T02220217
KLFK 200853Z AUTO 11003KT 10SM CLR 22/22 A2995 RMK AO2 SLP137 T02220217 56007
KLFK 200753Z AUTO 07005KT 10SM CLR 22/22 A2996 RMK AO2 SLP140 T02220217
KLFK 200653Z AUTO 00000KT 10SM CLR 23/22 A2996 RMK AO2 SLP139 T02280217
KLFK 200553Z AUTO 00000KT 10SM CLR 23/22 A2997 RMK AO2 SLP144 T02330222 10311 20233 403440233 50005